Amoenitas — V2FB4 — position and weather

sailwx.info

Track history (hours):
 
Tides and Currents Weather Stations Pressure Air Temp Water Temp Dewpoint Dewpoint Depression Visibility Wind Speed Wind Dir Waves Ship Positions

Amoenitas

Last reported at 2017-Dec-08 04:14 UTC. Time now 2017-Dec-14 00:45 UTC.
Position N 01°12' E 103°54'.

Length 134 m; draft 6 m.

Type: Ship (hazmat cat B). MMSI: 305621000.

Date/timePositionNaut miles runAvg speedWind from/ knotsBaromVisibWave heightAir tempDewpointWater temp
2017-Dec-08 04:14N 01°12' E 103°54'314.8
2017-Dec-08 04:00N 01°11' E 103°51'3 6.0
2017-Dec-08 03:28N 01°14' E 103°49'0 0.0
2017-Dec-08 02:15N 01°14' E 103°49'0 0.0
2017-Dec-07 20:48N 01°14' E 103°49'0 0.0
2017-Dec-07 18:21N 01°14' E 103°49'0 0.0
2017-Dec-07 16:12N 01°14' E 103°49'0 0.2
2017-Dec-07 15:51N 01°14' E 103°49'0 0.2
2017-Dec-07 15:27N 01°14' E 103°49'0 0.7
2017-Dec-07 15:00N 01°14' E 103°49'2 3.6
2017-Dec-07 14:30N 01°14' E 103°47'511.0
2017-Dec-07 14:00N 01°18' E 103°44'1 1.0
2017-Dec-07 13:30N 01°18' E 103°43'0 0.0
2017-Dec-07 12:57N 01°18' E 103°43'0 0.0
2017-Dec-07 12:30N 01°18' E 103°43'0 0.0
2017-Dec-07 11:57N 01°18' E 103°43'0 0.0
2017-Dec-07 11:30N 01°18' E 103°43'0 0.0
2017-Dec-07 10:56N 01°18' E 103°43'0 0.0
2017-Dec-07 10:28N 01°18' E 103°43'0 0.0
2017-Dec-07 09:56N 01°18' E 103°43'0 0.0
2017-Dec-07 09:29N 01°18' E 103°43'0 0.0
2017-Dec-07 08:52N 01°18' E 103°43'0 0.0
2017-Dec-07 08:28N 01°18' E 103°43'0 0.0
2017-Dec-07 07:58N 01°18' E 103°43'0 0.0
2017-Dec-07 07:30N 01°18' E 103°43'0 0.0
2017-Dec-07 06:56N 01°18' E 103°43'0 0.0
2017-Dec-07 06:29N 01°18' E 103°43'0 0.0
2017-Dec-07 05:58N 01°18' E 103°43'0 0.0
2017-Dec-07 05:29N 01°18' E 103°43'0 0.0
2017-Dec-07 04:59N 01°18' E 103°43'0 0.0
2017-Dec-07 04:29N 01°18' E 103°43'0 0.0
2017-Dec-07 03:58N 01°18' E 103°43'0 0.0
2017-Dec-07 03:28N 01°18' E 103°43'0 0.0
2017-Dec-07 02:58N 01°18' E 103°43'0 0.0
2017-Dec-07 02:27N 01°18' E 103°43'0 0.0
2017-Dec-07 01:57N 01°18' E 103°43'0 0.0
2017-Dec-07 01:27N 01°18' E 103°43'0 0.0
2017-Dec-07 01:00N 01°18' E 103°43'1 1.3
2017-Dec-07 00:31N 01°18' E 103°44'3 6.2
2017-Dec-07 00:00N 01°16' E 103°46'611.6
2017-Dec-06 23:30N 01°13' E 103°41'5 9.8
2017-Dec-06 22:59N 01°14' E 103°36'2 3.2
2017-Dec-06 22:26N 01°16' E 103°37'  
Track history (hours):
 
Tides and Currents Weather Stations Pressure Air Temp Water Temp Dewpoint Dewpoint Depression Visibility Wind Speed Wind Dir Waves Ship Positions

Amoenitas

Last reported at 2017-Dec-08 04:14 UTC. Time now 2017-Dec-14 00:45 UTC.
Position N 01°12' E 103°54'.

Length 134 m; draft 6 m.

Type: Ship (hazmat cat B). MMSI: 305621000.

Date/timePositionNaut miles runAvg speedWind from/ knotsBaromVisibWave heightAir tempDewpointWater temp
2017-Dec-08 04:14N 01°12' E 103°54'314.8
2017-Dec-08 04:00N 01°11' E 103°51'3 6.0
2017-Dec-08 03:28N 01°14' E 103°49'0 0.0
2017-Dec-08 02:15N 01°14' E 103°49'0 0.0
2017-Dec-07 20:48N 01°14' E 103°49'0 0.0
2017-Dec-07 18:21N 01°14' E 103°49'0 0.0
2017-Dec-07 16:12N 01°14' E 103°49'0 0.2
2017-Dec-07 15:51N 01°14' E 103°49'0 0.2
2017-Dec-07 15:27N 01°14' E 103°49'0 0.7
2017-Dec-07 15:00N 01°14' E 103°49'2 3.6
2017-Dec-07 14:30N 01°14' E 103°47'511.0
2017-Dec-07 14:00N 01°18' E 103°44'1 1.0
2017-Dec-07 13:30N 01°18' E 103°43'0 0.0
2017-Dec-07 12:57N 01°18' E 103°43'0 0.0
2017-Dec-07 12:30N 01°18' E 103°43'0 0.0
2017-Dec-07 11:57N 01°18' E 103°43'0 0.0
2017-Dec-07 11:30N 01°18' E 103°43'0 0.0
2017-Dec-07 10:56N 01°18' E 103°43'0 0.0
2017-Dec-07 10:28N 01°18' E 103°43'0 0.0
2017-Dec-07 09:56N 01°18' E 103°43'0 0.0
2017-Dec-07 09:29N 01°18' E 103°43'0 0.0
2017-Dec-07 08:52N 01°18' E 103°43'0 0.0
2017-Dec-07 08:28N 01°18' E 103°43'0 0.0
2017-Dec-07 07:58N 01°18' E 103°43'0 0.0
2017-Dec-07 07:30N 01°18' E 103°43'0 0.0
2017-Dec-07 06:56N 01°18' E 103°43'0 0.0
2017-Dec-07 06:29N 01°18' E 103°43'0 0.0
2017-Dec-07 05:58N 01°18' E 103°43'0 0.0
2017-Dec-07 05:29N 01°18' E 103°43'0 0.0
2017-Dec-07 04:59N 01°18' E 103°43'0 0.0
2017-Dec-07 04:29N 01°18' E 103°43'0 0.0
2017-Dec-07 03:58N 01°18' E 103°43'0 0.0
2017-Dec-07 03:28N 01°18' E 103°43'0 0.0
2017-Dec-07 02:58N 01°18' E 103°43'0 0.0
2017-Dec-07 02:27N 01°18' E 103°43'0 0.0
2017-Dec-07 01:57N 01°18' E 103°43'0 0.0
2017-Dec-07 01:27N 01°18' E 103°43'0 0.0
2017-Dec-07 01:00N 01°18' E 103°43'1 1.3
2017-Dec-07 00:31N 01°18' E 103°44'3 6.2
2017-Dec-07 00:00N 01°16' E 103°46'611.6
2017-Dec-06 23:30N 01°13' E 103°41'5 9.8
2017-Dec-06 22:59N 01°14' E 103°36'2 3.2
2017-Dec-06 22:26N 01°16' E 103°37'  

Dump ship's entire track history